createdAt,value
2023-09-14T00:00:11.128Z,63.33
2023-09-14T00:01:13.549Z,63.21
2023-09-14T00:02:16.742Z,63.02
2023-09-14T00:03:19.564Z,62.88
2023-09-14T00:05:24.684Z,62.84
2023-09-14T00:06:26.893Z,62.72
2023-09-14T00:07:29.033Z,62.47
2023-09-14T00:08:31.669Z,62.60
2023-09-14T00:09:33.949Z,62.46
2023-09-14T00:10:36.180Z,62.22
2023-09-14T00:11:38.354Z,62.23
2023-09-14T00:12:40.564Z,62.15
2023-09-14T00:13:42.790Z,62.41
2023-09-14T00:14:44.912Z,62.38
2023-09-14T00:15:47.214Z,62.42
2023-09-14T00:16:49.528Z,62.42
2023-09-14T00:17:51.807Z,62.35
2023-09-14T00:18:53.958Z,62.44
2023-09-14T00:19:56.130Z,62.41
2023-09-14T00:20:58.876Z,62.36
2023-09-14T00:22:01.071Z,62.58
2023-09-14T00:23:04.845Z,62.62
2023-09-14T00:24:07.432Z,62.54
2023-09-14T00:25:09.687Z,62.91
2023-09-14T00:26:12.406Z,62.77
2023-09-14T00:27:14.608Z,62.91
2023-09-14T00:28:18.391Z,62.93
2023-09-14T00:29:20.551Z,63.21
2023-09-14T00:30:23.976Z,62.84
2023-09-14T00:31:26.193Z,63.07
2023-09-14T00:32:28.558Z,62.91
2023-09-14T00:33:30.751Z,63.12
2023-09-14T00:34:32.913Z,63.25
2023-09-14T00:35:35.057Z,63.31
2023-09-14T00:36:37.569Z,63.49
2023-09-14T00:37:40.271Z,63.61
2023-09-14T00:38:42.629Z,63.59
2023-09-14T00:39:45.256Z,63.74
2023-09-14T00:40:47.509Z,63.84
2023-09-14T00:41:49.687Z,63.99
2023-09-14T00:42:52.522Z,63.89
2023-09-14T00:43:54.710Z,64.13
2023-09-14T00:44:56.849Z,64.45
2023-09-14T00:45:59.035Z,64.43
2023-09-14T00:47:01.345Z,64.57
2023-09-14T00:48:04.062Z,64.75
2023-09-14T00:49:06.375Z,64.97
2023-09-14T00:50:08.924Z,65.03
2023-09-14T00:51:11.159Z,65.35
2023-09-14T00:52:15.077Z,65.66
2023-09-14T00:53:17.692Z,65.81
2023-09-14T00:54:21.279Z,66.07
2023-09-14T00:55:24.713Z,66.20
2023-09-14T00:56:27.959Z,66.34
2023-09-14T00:57:30.201Z,66.36
2023-09-14T00:58:32.370Z,66.80
2023-09-14T00:59:34.940Z,67.17
2023-09-14T01:00:37.181Z,67.29
2023-09-14T01:01:39.556Z,67.71
2023-09-14T01:02:42.158Z,68.04
2023-09-14T01:03:44.951Z,68.05
2023-09-14T01:04:47.970Z,68.09
2023-09-14T01:05:50.703Z,68.39
2023-09-14T01:06:52.959Z,68.59
2023-09-14T01:07:55.648Z,68.70
2023-09-14T01:08:58.459Z,68.98
2023-09-14T01:10:01.329Z,69.12
2023-09-14T01:11:03.558Z,69.21
2023-09-14T01:12:09.264Z,69.19
2023-09-14T01:13:24.279Z,69.32
2023-09-14T01:14:42.989Z,69.38
2023-09-14T01:15:56.179Z,69.65
2023-09-14T01:17:08.242Z,69.42
2023-09-14T01:18:31.906Z,69.63
2023-09-14T01:19:47.282Z,69.76
2023-09-14T01:21:05.218Z,70.00
2023-09-14T01:22:32.103Z,70.15
2023-09-14T01:24:04.517Z,70.26
2023-09-14T01:25:10.567Z,70.16
2023-09-14T01:26:13.013Z,70.14
2023-09-14T01:27:15.964Z,70.36
2023-09-14T01:28:19.656Z,70.35
2023-09-14T01:29:21.856Z,70.62
2023-09-14T01:30:23.992Z,70.63
2023-09-14T01:31:27.113Z,70.84
2023-09-14T01:32:29.405Z,70.78
2023-09-14T01:33:32.666Z,70.86
2023-09-14T01:34:34.993Z,71.13
2023-09-14T01:36:04.799Z,71.58
2023-09-14T01:37:07.536Z,71.69
2023-09-14T01:38:09.976Z,72.19
2023-09-14T01:39:12.793Z,72.27
2023-09-14T01:40:15.057Z,72.49
2023-09-14T01:41:17.881Z,73.03
2023-09-14T01:42:22.111Z,73.31
2023-09-14T01:43:24.642Z,73.45
2023-09-14T01:44:28.398Z,73.37
2023-09-14T01:45:31.998Z,73.40
2023-09-14T01:46:34.324Z,73.55
2023-09-14T01:47:36.654Z,73.85
2023-09-14T01:48:38.862Z,73.91
2023-09-14T01:49:41.026Z,74.15
2023-09-14T01:50:43.776Z,74.40
2023-09-14T01:51:45.973Z,74.65
2023-09-14T01:52:48.316Z,74.87
2023-09-14T01:53:50.484Z,74.97
2023-09-14T01:54:52.715Z,75.10
2023-09-14T01:55:54.882Z,75.62
2023-09-14T01:56:57.076Z,75.81
2023-09-14T01:57:59.224Z,75.98
2023-09-14T01:59:01.452Z,76.08
2023-09-14T02:00:22.343Z,76.38
2023-09-14T02:01:24.516Z,76.37
2023-09-14T02:02:27.802Z,76.56
2023-09-14T02:03:29.997Z,76.54
2023-09-14T02:04:32.570Z,76.71
2023-09-14T02:05:35.845Z,76.89
2023-09-14T02:06:38.228Z,76.90
2023-09-14T02:07:40.438Z,77.27
2023-09-14T02:08:42.705Z,77.18
2023-09-14T02:09:44.871Z,77.11
2023-09-14T02:10:47.063Z,77.09
2023-09-14T02:11:49.258Z,77.51
2023-09-14T02:12:51.455Z,77.66
2023-09-14T02:13:53.649Z,77.67
2023-09-14T02:14:55.761Z,77.73
2023-09-14T02:15:58.425Z,77.77
2023-09-14T02:17:00.692Z,78.17
2023-09-14T02:18:03.076Z,78.13
2023-09-14T02:19:05.284Z,78.24
2023-09-14T02:20:10.000Z,78.34
2023-09-14T02:21:12.805Z,78.92
2023-09-14T02:22:14.944Z,78.83
2023-09-14T02:23:18.973Z,78.94
2023-09-14T02:24:21.223Z,79.15
2023-09-14T02:25:23.365Z,79.14
2023-09-14T02:26:25.518Z,79.12
2023-09-14T02:27:27.681Z,79.13
2023-09-14T02:28:29.834Z,79.29
2023-09-14T02:29:31.998Z,79.32
2023-09-14T02:30:34.172Z,79.48
2023-09-14T02:31:36.387Z,79.51
2023-09-14T02:32:38.854Z,79.84
2023-09-14T02:33:41.248Z,79.32
2023-09-14T02:34:43.523Z,79.29
2023-09-14T02:35:52.421Z,79.34
2023-09-14T02:36:55.556Z,79.03
2023-09-14T02:37:57.738Z,78.97
2023-09-14T02:38:59.912Z,78.88
2023-09-14T02:40:02.162Z,78.78
2023-09-14T02:41:04.391Z,78.56
2023-09-14T02:42:06.693Z,78.56
2023-09-14T02:43:09.155Z,78.60
2023-09-14T02:44:11.426Z,78.62
2023-09-14T02:45:13.600Z,78.64
2023-09-14T02:46:16.044Z,78.65
2023-09-14T02:47:18.217Z,78.59
2023-09-14T02:48:20.415Z,78.90
2023-09-14T02:49:22.707Z,78.58
2023-09-14T02:50:24.850Z,78.68
2023-09-14T02:51:27.110Z,78.97
2023-09-14T02:52:29.275Z,78.92
2023-09-14T02:53:31.456Z,79.24
2023-09-14T02:54:33.693Z,79.42
2023-09-14T02:55:36.163Z,79.62
2023-09-14T02:56:38.297Z,79.69
2023-09-14T02:57:40.705Z,79.76
2023-09-14T02:58:42.899Z,80.04
2023-09-14T02:59:45.038Z,80.25
2023-09-14T03:00:47.197Z,80.45
2023-09-14T03:01:50.947Z,80.54
2023-09-14T03:02:53.412Z,80.41
2023-09-14T03:03:55.752Z,80.29
2023-09-14T03:04:57.910Z,80.26
2023-09-14T03:06:00.053Z,80.03
2023-09-14T03:07:03.173Z,80.20
2023-09-14T03:08:05.770Z,80.21
2023-09-14T03:09:08.110Z,79.92
2023-09-14T03:10:10.631Z,79.93
2023-09-14T03:11:14.073Z,79.80
2023-09-14T03:12:16.233Z,79.92
2023-09-14T03:13:18.458Z,79.58
2023-09-14T03:14:20.645Z,79.83
2023-09-14T03:15:22.846Z,79.96
2023-09-14T03:16:25.126Z,79.90
2023-09-14T03:17:27.378Z,80.04
2023-09-14T03:18:29.656Z,80.04
2023-09-14T03:19:31.902Z,80.31
2023-09-14T03:20:34.093Z,80.14
2023-09-14T03:21:36.282Z,80.23
2023-09-14T03:22:38.460Z,80.55
2023-09-14T03:23:40.616Z,80.54
2023-09-14T03:24:43.137Z,80.56
2023-09-14T03:25:46.167Z,80.51
2023-09-14T03:26:48.368Z,80.54
2023-09-14T03:27:50.564Z,80.64
2023-09-14T03:28:52.814Z,80.26
2023-09-14T03:29:55.014Z,80.69
2023-09-14T03:30:57.211Z,80.66
2023-09-14T03:31:59.432Z,80.75
2023-09-14T03:33:01.684Z,80.59
2023-09-14T03:34:03.927Z,80.71
2023-09-14T03:35:06.502Z,80.70
2023-09-14T03:36:08.657Z,80.64
2023-09-14T03:37:10.835Z,80.23
2023-09-14T03:38:13.053Z,80.42
2023-09-14T03:39:16.483Z,80.25
2023-09-14T03:40:18.670Z,79.64
2023-09-14T03:41:20.943Z,79.65
2023-09-14T03:42:23.768Z,80.03
2023-09-14T03:43:25.951Z,79.91
2023-09-14T03:44:28.144Z,80.01
2023-09-14T03:45:30.376Z,79.74
2023-09-14T03:46:32.725Z,79.55
2023-09-14T03:47:35.000Z,79.52
2023-09-14T03:48:37.441Z,79.38
2023-09-14T03:49:39.657Z,79.78
2023-09-14T03:50:41.855Z,80.02
2023-09-14T03:51:44.128Z,79.98
2023-09-14T03:52:46.311Z,80.13
2023-09-14T03:53:48.496Z,79.95
2023-09-14T03:54:50.695Z,80.09
2023-09-14T03:55:54.037Z,80.20
2023-09-14T03:56:56.411Z,80.20
2023-09-14T03:57:58.929Z,80.56
2023-09-14T03:59:01.151Z,80.58
2023-09-14T04:00:08.545Z,80.51
2023-09-14T04:01:10.892Z,80.66
2023-09-14T04:02:13.212Z,80.60
2023-09-14T04:03:17.673Z,80.55
2023-09-14T04:04:19.773Z,80.70
2023-09-14T04:05:21.911Z,80.83
2023-09-14T04:06:24.203Z,80.89
2023-09-14T04:07:26.406Z,80.55
2023-09-14T04:08:28.558Z,80.83
2023-09-14T04:09:30.913Z,80.84
2023-09-14T04:10:33.027Z,80.89
2023-09-14T04:11:35.393Z,81.20
2023-09-14T04:12:39.342Z,81.37
2023-09-14T04:13:41.602Z,81.29
2023-09-14T04:15:02.060Z,80.98
2023-09-14T04:16:06.168Z,80.69
2023-09-14T04:17:08.504Z,80.49
2023-09-14T04:18:10.653Z,80.58
2023-09-14T04:19:13.866Z,80.65
2023-09-14T04:20:16.136Z,80.86
2023-09-14T04:21:18.308Z,80.90
2023-09-14T04:22:20.519Z,80.88
2023-09-14T04:23:22.891Z,81.03
2023-09-14T04:24:25.095Z,80.67
2023-09-14T04:25:28.247Z,80.76
2023-09-14T04:26:30.503Z,80.70
2023-09-14T04:27:32.900Z,80.83
2023-09-14T04:28:35.094Z,80.70
2023-09-14T04:29:37.286Z,80.71
2023-09-14T04:30:47.030Z,80.85
2023-09-14T04:31:49.396Z,80.69
2023-09-14T04:32:52.056Z,80.89
2023-09-14T04:33:54.308Z,80.73
2023-09-14T04:34:56.515Z,80.79
2023-09-14T04:35:59.638Z,81.16
2023-09-14T04:37:01.933Z,81.28
2023-09-14T04:38:04.307Z,81.01
2023-09-14T04:39:06.951Z,81.20
2023-09-14T04:40:10.811Z,81.40
2023-09-14T04:41:13.186Z,81.49
2023-09-14T04:42:15.378Z,81.85
2023-09-14T04:43:17.584Z,82.08
2023-09-14T04:44:19.820Z,82.00
2023-09-14T04:45:22.050Z,81.90
2023-09-14T04:46:24.435Z,81.58
2023-09-14T04:47:26.696Z,81.65
2023-09-14T04:48:29.657Z,81.61
2023-09-14T04:49:31.843Z,82.11
2023-09-14T04:50:34.387Z,82.25
2023-09-14T04:51:36.564Z,82.37
2023-09-14T04:52:38.772Z,82.38
2023-09-14T04:53:40.960Z,82.26
2023-09-14T04:54:43.306Z,82.30
2023-09-14T04:55:46.506Z,82.18
2023-09-14T04:56:48.695Z,82.33
2023-09-14T04:57:56.656Z,82.15
2023-09-14T04:58:58.827Z,81.85
2023-09-14T05:00:00.996Z,82.02
2023-09-14T05:01:03.844Z,81.90
2023-09-14T05:02:06.018Z,82.02
2023-09-14T05:03:08.273Z,82.20
2023-09-14T05:04:10.581Z,81.95
2023-09-14T05:05:12.880Z,81.79
2023-09-14T05:06:15.022Z,81.60
2023-09-14T05:07:17.243Z,81.25
2023-09-14T05:08:19.454Z,81.26
2023-09-14T05:09:21.589Z,81.10
2023-09-14T05:10:24.196Z,81.06
2023-09-14T05:11:26.347Z,81.10
2023-09-14T05:12:29.384Z,81.04
2023-09-14T05:13:31.777Z,80.86
2023-09-14T05:14:33.933Z,81.08
2023-09-14T05:15:36.098Z,81.02
2023-09-14T05:16:38.484Z,81.28
2023-09-14T05:17:40.762Z,81.36
2023-09-14T05:18:43.131Z,81.18
2023-09-14T05:19:45.460Z,81.18
2023-09-14T05:20:51.114Z,80.97
2023-09-14T05:21:53.251Z,81.16
2023-09-14T05:22:55.442Z,81.03
2023-09-14T05:23:57.543Z,80.89
2023-09-14T05:24:59.718Z,80.87
2023-09-14T05:26:01.909Z,80.74
2023-09-14T05:27:04.356Z,80.49
2023-09-14T05:28:07.610Z,80.71
2023-09-14T05:29:09.822Z,80.56
2023-09-14T05:30:12.117Z,80.34
2023-09-14T05:31:14.475Z,80.36
2023-09-14T05:32:16.797Z,80.03
2023-09-14T05:33:19.550Z,79.88
2023-09-14T05:34:24.456Z,79.49
2023-09-14T05:35:27.444Z,79.19
2023-09-14T05:36:29.592Z,79.19
2023-09-14T05:37:31.767Z,79.24
2023-09-14T05:38:33.886Z,79.67
2023-09-14T05:39:36.047Z,79.60
2023-09-14T05:40:38.180Z,79.60
2023-09-14T05:41:41.659Z,79.23
2023-09-14T05:42:43.907Z,78.97
2023-09-14T05:43:46.045Z,78.90
2023-09-14T05:44:49.206Z,78.75
2023-09-14T05:45:52.433Z,78.56
2023-09-14T05:46:54.797Z,78.33
2023-09-14T05:47:57.146Z,78.11
2023-09-14T05:48:59.486Z,77.78
2023-09-14T05:50:01.912Z,77.50
2023-09-14T05:51:04.530Z,77.80
2023-09-14T05:52:06.738Z,77.95
2023-09-14T05:53:08.978Z,77.92
2023-09-14T05:54:11.144Z,78.11
2023-09-14T05:55:13.382Z,77.81
2023-09-14T05:56:15.817Z,77.89
2023-09-14T05:57:17.999Z,78.13
2023-09-14T05:58:20.174Z,78.10
2023-09-14T05:59:31.932Z,78.17
2023-09-14T06:00:34.678Z,78.43
2023-09-14T06:01:37.488Z,78.29
2023-09-14T06:02:42.927Z,78.49
2023-09-14T06:03:45.213Z,78.88
2023-09-14T06:04:48.538Z,78.58
2023-09-14T06:05:50.806Z,78.46
2023-09-14T06:06:52.954Z,78.64
2023-09-14T06:07:55.882Z,78.23
2023-09-14T06:08:58.229Z,78.18
2023-09-14T06:10:00.465Z,77.96
2023-09-14T06:11:02.660Z,77.52
2023-09-14T06:12:05.249Z,77.51
2023-09-14T06:13:07.483Z,77.18
2023-09-14T06:14:09.672Z,77.14
2023-09-14T06:15:11.889Z,76.65
2023-09-14T06:16:14.230Z,76.55
2023-09-14T06:17:16.435Z,76.67
2023-09-14T06:18:18.688Z,76.29
2023-09-14T06:19:21.175Z,76.01
2023-09-14T06:20:23.396Z,76.47
2023-09-14T06:21:25.532Z,76.64
2023-09-14T06:22:27.783Z,77.01
2023-09-14T06:23:29.918Z,76.95
2023-09-14T06:24:32.133Z,77.26
2023-09-14T06:25:34.268Z,77.29
2023-09-14T06:26:36.386Z,77.42
2023-09-14T06:27:38.636Z,77.45
2023-09-14T06:28:41.213Z,77.55
2023-09-14T06:29:43.420Z,77.44
2023-09-14T06:30:45.645Z,77.17
2023-09-14T06:31:47.958Z,76.78
2023-09-14T06:32:50.297Z,76.30
2023-09-14T06:33:52.911Z,75.89
2023-09-14T06:34:55.217Z,75.37
2023-09-14T06:35:57.422Z,75.23
2023-09-14T06:36:59.581Z,75.14
2023-09-14T06:38:05.276Z,74.57
2023-09-14T06:39:08.302Z,74.17
2023-09-14T06:40:11.351Z,74.26
2023-09-14T06:41:14.616Z,74.24
2023-09-14T06:42:16.782Z,73.80
2023-09-14T06:43:18.995Z,73.88
2023-09-14T06:44:22.394Z,73.59
2023-09-14T06:45:24.511Z,73.80
2023-09-14T06:46:26.872Z,73.48
2023-09-14T06:47:29.100Z,74.09
2023-09-14T06:48:31.256Z,73.73
2023-09-14T06:49:33.421Z,73.61
2023-09-14T06:50:35.690Z,72.98
2023-09-14T06:51:37.852Z,72.82
2023-09-14T06:52:40.024Z,72.94
2023-09-14T06:53:42.153Z,73.32
2023-09-14T06:54:46.921Z,73.64
2023-09-14T06:55:49.091Z,73.50
2023-09-14T06:56:51.433Z,73.95
2023-09-14T06:57:53.764Z,74.46
2023-09-14T06:58:56.216Z,74.52
2023-09-14T06:59:58.481Z,74.68
2023-09-14T07:01:05.699Z,74.35
2023-09-14T07:02:08.149Z,74.24
2023-09-14T07:03:10.585Z,74.06
2023-09-14T07:04:12.911Z,73.45
2023-09-14T07:05:15.385Z,72.98
2023-09-14T07:06:17.545Z,72.17
2023-09-14T07:07:19.799Z,71.91
2023-09-14T07:08:22.009Z,71.49
2023-09-14T07:09:24.778Z,71.26
2023-09-14T07:10:27.117Z,71.26
2023-09-14T07:11:29.269Z,70.58
2023-09-14T07:12:31.404Z,70.51
2023-09-14T07:13:34.171Z,70.43
2023-09-14T07:14:36.354Z,70.27
2023-09-14T07:15:38.456Z,70.60
2023-09-14T07:16:41.070Z,70.19
2023-09-14T07:17:43.490Z,70.01
2023-09-14T07:18:46.884Z,69.56
2023-09-14T07:19:49.905Z,69.57
2023-09-14T07:20:53.427Z,70.39
2023-09-14T07:21:58.187Z,70.46
2023-09-14T07:23:00.446Z,70.63
2023-09-14T07:24:02.588Z,70.95
2023-09-14T07:25:06.245Z,70.64
2023-09-14T07:26:08.957Z,70.97
2023-09-14T07:27:11.174Z,71.44
2023-09-14T07:28:13.448Z,71.13
2023-09-14T07:29:16.533Z,71.00
2023-09-14T07:30:18.690Z,71.07
2023-09-14T07:31:20.876Z,71.22
2023-09-14T07:32:23.180Z,71.15
2023-09-14T07:33:27.084Z,71.37
2023-09-14T07:34:29.282Z,71.04
2023-09-14T07:35:31.488Z,70.78
2023-09-14T07:36:33.632Z,71.34
2023-09-14T07:37:36.236Z,71.44
2023-09-14T07:38:38.698Z,71.03
2023-09-14T07:39:40.850Z,70.74
2023-09-14T07:40:43.419Z,70.27
2023-09-14T07:41:45.600Z,70.60
2023-09-14T07:42:47.885Z,70.49
2023-09-14T07:43:50.022Z,70.60
2023-09-14T07:44:52.256Z,69.61
2023-09-14T07:45:58.117Z,69.41
2023-09-14T07:47:00.476Z,69.14
2023-09-14T07:48:04.663Z,69.32
2023-09-14T07:49:07.329Z,68.93
2023-09-14T07:50:09.882Z,68.68
2023-09-14T07:51:12.035Z,68.48
2023-09-14T07:52:14.229Z,68.42
2023-09-14T07:53:16.827Z,68.10
2023-09-14T07:54:19.104Z,67.84
2023-09-14T07:55:21.588Z,68.62
2023-09-14T07:56:23.979Z,68.20
2023-09-14T07:57:26.129Z,68.71
2023-09-14T07:58:28.631Z,68.88
2023-09-14T07:59:30.817Z,68.75
2023-09-14T08:00:36.472Z,69.12
2023-09-14T08:01:38.932Z,68.74
2023-09-14T08:02:41.335Z,68.33
2023-09-14T08:03:43.775Z,68.60
2023-09-14T08:04:46.258Z,68.94
2023-09-14T08:05:48.538Z,68.84
2023-09-14T08:06:50.698Z,68.54
2023-09-14T08:07:53.915Z,67.64
2023-09-14T08:08:56.422Z,67.35
2023-09-14T08:09:58.600Z,66.92
2023-09-14T08:11:01.717Z,67.50
2023-09-14T08:12:04.087Z,67.50
2023-09-14T08:13:06.275Z,67.43
2023-09-14T08:14:08.554Z,67.23
2023-09-14T08:15:11.316Z,67.41
2023-09-14T08:16:13.572Z,67.48
2023-09-14T08:17:15.760Z,67.64
2023-09-14T08:18:19.814Z,67.85
2023-09-14T08:19:22.038Z,67.98
2023-09-14T08:20:24.227Z,68.58
2023-09-14T08:21:26.377Z,68.72
2023-09-14T08:22:28.753Z,69.05
2023-09-14T08:23:30.927Z,69.15
2023-09-14T08:24:33.083Z,69.24
2023-09-14T08:25:37.097Z,69.96
2023-09-14T08:26:39.218Z,70.08
2023-09-14T08:27:41.680Z,69.78
2023-09-14T08:28:43.803Z,69.49
2023-09-14T08:29:46.554Z,69.09
2023-09-14T08:30:49.768Z,68.15
2023-09-14T08:31:52.095Z,67.06
2023-09-14T08:32:54.290Z,65.95
2023-09-14T08:33:56.564Z,64.43
2023-09-14T08:34:59.693Z,62.21
2023-09-14T08:36:01.886Z,61.39
2023-09-14T08:37:04.842Z,60.22
2023-09-14T08:38:08.323Z,58.42
2023-09-14T08:39:16.346Z,58.13
2023-09-14T08:40:20.050Z,57.42
2023-09-14T08:41:52.447Z,57.17
2023-09-14T08:42:55.831Z,56.02
2023-09-14T08:43:58.455Z,55.34
2023-09-14T08:45:00.667Z,54.85
2023-09-14T08:46:03.500Z,55.90
2023-09-14T08:47:06.545Z,55.64
2023-09-14T08:48:09.852Z,54.51
2023-09-14T08:49:12.807Z,54.22
2023-09-14T08:50:16.023Z,53.47
2023-09-14T08:51:18.935Z,52.38
2023-09-14T08:52:21.596Z,51.33
2023-09-14T08:53:23.949Z,51.93
2023-09-14T08:54:26.781Z,51.88
2023-09-14T08:55:31.237Z,51.87
2023-09-14T08:56:34.272Z,53.05
2023-09-14T08:57:37.487Z,52.55
2023-09-14T08:58:40.704Z,51.74
2023-09-14T08:59:42.838Z,50.49
2023-09-14T09:00:46.221Z,48.60
2023-09-14T09:01:52.093Z,49.67
2023-09-14T09:02:55.760Z,51.26
2023-09-14T09:03:58.076Z,51.17
2023-09-14T09:05:00.445Z,51.67
2023-09-14T09:06:02.807Z,50.80
2023-09-14T09:07:05.611Z,50.81
2023-09-14T09:08:07.908Z,51.80
2023-09-14T09:09:11.862Z,52.10
2023-09-14T09:10:17.831Z,52.78
2023-09-14T09:11:20.121Z,52.71
2023-09-14T09:12:22.276Z,53.08
2023-09-14T09:13:33.163Z,53.52
2023-09-14T09:14:38.517Z,53.41
2023-09-14T09:15:40.672Z,53.41
2023-09-14T09:16:42.916Z,51.06
2023-09-14T09:17:45.702Z,49.51
2023-09-14T09:19:04.913Z,49.26
2023-09-14T09:20:17.833Z,49.32
2023-09-14T09:21:33.810Z,50.09
2023-09-14T09:22:40.667Z,52.78
2023-09-14T09:23:42.806Z,54.17
2023-09-14T09:24:45.047Z,55.26
2023-09-14T09:25:52.200Z,56.60
2023-09-14T09:26:55.624Z,57.10
2023-09-14T09:27:58.924Z,57.37
2023-09-14T09:29:01.073Z,57.59
2023-09-14T09:30:04.787Z,57.34
2023-09-14T09:31:06.945Z,57.60
2023-09-14T09:32:21.862Z,57.41
2023-09-14T09:33:42.356Z,57.00
2023-09-14T09:34:44.504Z,57.23
2023-09-14T09:35:46.633Z,57.07
2023-09-14T09:36:49.431Z,57.38
2023-09-14T09:37:52.403Z,56.42
2023-09-14T09:38:55.407Z,55.45
2023-09-14T09:39:58.441Z,53.12
2023-09-14T09:41:01.692Z,50.85
2023-09-14T09:42:04.350Z,48.83
2023-09-14T09:43:08.800Z,48.09
2023-09-14T09:44:11.021Z,47.88
2023-09-14T09:45:14.247Z,46.16
2023-09-14T09:46:17.189Z,46.56
2023-09-14T09:47:20.592Z,46.92
2023-09-14T09:48:22.739Z,48.54
2023-09-14T09:49:25.736Z,48.64
2023-09-14T09:50:28.211Z,49.71
2023-09-14T09:51:30.952Z,50.37
2023-09-14T09:52:34.438Z,51.64
2023-09-14T09:53:37.238Z,51.92
2023-09-14T09:54:39.411Z,51.91
2023-09-14T09:55:44.428Z,53.07
2023-09-14T09:56:46.630Z,52.80
2023-09-14T09:57:55.416Z,53.63
2023-09-14T09:58:57.847Z,52.81
2023-09-14T10:00:00.099Z,52.56
2023-09-14T10:01:02.498Z,50.40
2023-09-14T10:02:04.628Z,49.38
2023-09-14T10:03:07.485Z,49.48
2023-09-14T10:04:10.996Z,50.17
2023-09-14T10:05:13.226Z,50.51
2023-09-14T10:06:15.542Z,51.91
2023-09-14T10:07:22.921Z,52.90
2023-09-14T10:08:25.139Z,53.60
2023-09-14T10:09:34.072Z,54.40
2023-09-14T10:10:36.656Z,53.82
2023-09-14T10:11:39.811Z,54.29
2023-09-14T10:12:42.529Z,54.69
2023-09-14T10:13:44.954Z,54.33
2023-09-14T10:14:49.624Z,52.76
2023-09-14T10:15:54.446Z,51.26
2023-09-14T10:16:57.747Z,51.41
2023-09-14T10:17:59.948Z,51.29
2023-09-14T10:19:04.018Z,52.03
2023-09-14T10:20:07.473Z,51.68
2023-09-14T10:21:09.731Z,51.13
2023-09-14T10:22:12.329Z,51.59
2023-09-14T10:23:16.978Z,52.03
2023-09-14T10:24:19.940Z,51.69
2023-09-14T10:25:22.505Z,51.96
2023-09-14T10:26:25.059Z,51.83
2023-09-14T10:27:30.718Z,51.75
2023-09-14T10:28:33.482Z,51.82
2023-09-14T10:29:39.440Z,51.69
2023-09-14T10:30:43.373Z,51.42
2023-09-14T10:31:47.956Z,50.64
2023-09-14T10:32:53.877Z,50.08
2023-09-14T10:34:01.364Z,50.47
2023-09-14T10:35:06.869Z,50.49
2023-09-14T10:36:10.627Z,49.97
2023-09-14T10:37:13.082Z,49.92
2023-09-14T10:38:15.680Z,49.70
2023-09-14T10:39:23.409Z,50.27
2023-09-14T10:40:27.611Z,50.14
2023-09-14T10:41:29.813Z,51.04
2023-09-14T10:42:32.073Z,49.61
2023-09-14T10:43:34.279Z,47.64
2023-09-14T10:44:36.661Z,45.65
2023-09-14T10:45:40.395Z,44.41
2023-09-14T10:46:43.790Z,41.96
2023-09-14T10:47:49.806Z,42.43
2023-09-14T10:48:52.471Z,43.31
2023-09-14T10:49:55.502Z,43.91
2023-09-14T10:50:59.583Z,42.99
2023-09-14T10:52:02.066Z,43.06
2023-09-14T10:53:04.469Z,43.81
2023-09-14T10:54:06.723Z,43.97
2023-09-14T10:55:10.203Z,42.29
2023-09-14T10:56:32.914Z,40.85
2023-09-14T10:57:36.231Z,41.06
2023-09-14T10:58:42.899Z,40.96
2023-09-14T10:59:48.514Z,41.83
2023-09-14T11:00:58.330Z,41.99
2023-09-14T11:02:18.985Z,41.29
2023-09-14T11:03:25.018Z,40.95
2023-09-14T11:04:28.238Z,41.16
2023-09-14T11:05:44.937Z,41.45
2023-09-14T11:06:57.299Z,42.74
2023-09-14T11:08:02.644Z,41.82
2023-09-14T11:09:07.841Z,41.15
2023-09-14T11:10:11.747Z,40.92
2023-09-14T11:11:14.268Z,38.33
2023-09-14T11:12:22.752Z,36.88
2023-09-14T11:13:28.187Z,37.67
2023-09-14T11:14:31.988Z,37.73
2023-09-14T11:15:35.858Z,37.32
2023-09-14T11:16:51.059Z,37.34
2023-09-14T11:17:55.248Z,37.78
2023-09-14T11:18:59.547Z,37.61
2023-09-14T11:20:03.584Z,38.92
2023-09-14T11:21:08.210Z,39.45
2023-09-14T11:22:19.156Z,39.41
2023-09-14T11:23:34.078Z,40.58
2023-09-14T11:24:39.475Z,41.39
2023-09-14T11:26:00.538Z,42.75
2023-09-14T11:27:08.508Z,43.75
2023-09-14T11:28:22.310Z,44.95
2023-09-14T11:29:28.399Z,46.06
2023-09-14T11:30:32.677Z,48.14
2023-09-14T11:31:55.756Z,49.69
2023-09-14T11:32:59.230Z,50.98
2023-09-14T11:34:11.849Z,52.76
2023-09-14T11:35:18.926Z,53.19
2023-09-14T11:36:22.705Z,56.39
2023-09-14T11:37:29.491Z,56.63
2023-09-14T11:38:33.727Z,54.45
2023-09-14T11:39:38.381Z,56.00
2023-09-14T11:40:41.468Z,54.62
2023-09-14T11:41:50.222Z,53.69
2023-09-14T11:43:16.842Z,54.60
2023-09-14T11:45:25.146Z,55.96
2023-09-14T11:46:28.987Z,58.09
2023-09-14T11:47:35.247Z,55.15
2023-09-14T11:49:51.241Z,55.08
2023-09-14T11:50:53.960Z,54.58
2023-09-14T11:51:56.776Z,54.42
2023-09-14T11:52:59.860Z,54.76
2023-09-14T11:54:02.829Z,55.10
2023-09-14T11:55:05.905Z,54.45
2023-09-14T11:56:08.216Z,54.59
2023-09-14T11:57:10.444Z,52.82
2023-09-14T11:58:14.362Z,51.39
2023-09-14T11:59:32.504Z,50.06
2023-09-14T12:00:39.063Z,49.04
2023-09-14T12:01:41.684Z,49.99
2023-09-14T12:02:44.020Z,50.77
2023-09-14T12:03:46.677Z,49.18
2023-09-14T12:04:50.317Z,48.91
2023-09-14T12:05:58.190Z,48.98
2023-09-14T12:07:03.199Z,50.13
2023-09-14T12:08:12.483Z,51.19
2023-09-14T12:09:30.827Z,51.59
2023-09-14T12:10:36.934Z,51.18
2023-09-14T12:11:40.967Z,51.24
2023-09-14T12:12:43.159Z,51.81
2023-09-14T12:13:51.811Z,51.98
2023-09-14T12:14:54.195Z,52.20
2023-09-14T12:16:01.401Z,52.50
2023-09-14T12:17:04.061Z,52.44
2023-09-14T12:18:06.544Z,53.29
2023-09-14T12:19:13.234Z,52.94
2023-09-14T12:20:16.411Z,53.20
2023-09-14T12:21:20.324Z,52.53
2023-09-14T12:22:23.708Z,52.65
2023-09-14T12:23:26.023Z,53.63
2023-09-14T12:24:28.294Z,54.04
2023-09-14T12:25:30.664Z,54.57
2023-09-14T12:26:33.353Z,54.83
2023-09-14T12:27:37.226Z,55.26
2023-09-14T12:28:40.396Z,55.00
2023-09-14T12:29:43.382Z,54.76
2023-09-14T12:30:45.594Z,54.49
2023-09-14T12:31:47.937Z,54.55
2023-09-14T12:32:50.179Z,54.88
2023-09-14T12:33:53.172Z,54.84
2023-09-14T12:34:55.462Z,53.55
2023-09-14T12:35:58.735Z,50.54
2023-09-14T12:37:01.973Z,50.92
2023-09-14T12:38:07.483Z,52.89
2023-09-14T12:39:28.298Z,53.04
2023-09-14T12:40:35.271Z,52.24
2023-09-14T12:41:37.456Z,52.02
2023-09-14T12:42:43.882Z,52.76
2023-09-14T12:43:46.448Z,54.01
2023-09-14T12:44:50.021Z,54.75
2023-09-14T12:45:52.382Z,55.60
2023-09-14T12:46:54.939Z,56.25
2023-09-14T12:47:57.196Z,56.40
2023-09-14T12:49:02.523Z,56.99
2023-09-14T12:50:05.842Z,57.10
2023-09-14T12:51:08.023Z,56.80
2023-09-14T12:52:10.225Z,56.43
2023-09-14T12:53:14.635Z,57.25
2023-09-14T12:54:19.946Z,57.55
2023-09-14T12:55:23.458Z,58.21
2023-09-14T12:56:25.846Z,57.39
2023-09-14T12:57:28.099Z,57.85
2023-09-14T12:58:30.850Z,57.69
2023-09-14T12:59:33.011Z,58.03
2023-09-14T13:00:35.788Z,58.21
2023-09-14T13:01:40.636Z,58.18
2023-09-14T13:02:44.524Z,57.61
2023-09-14T13:03:46.942Z,56.92
2023-09-14T13:04:49.332Z,56.06
2023-09-14T13:05:54.718Z,55.99
2023-09-14T13:06:58.104Z,56.81
2023-09-14T13:08:01.688Z,56.51
2023-09-14T13:09:09.005Z,56.95
2023-09-14T13:10:13.097Z,56.72
2023-09-14T13:11:25.062Z,57.22
2023-09-14T13:12:27.255Z,56.41
2023-09-14T13:13:31.534Z,56.64
2023-09-14T13:14:35.727Z,56.64
2023-09-14T13:15:40.673Z,56.93
2023-09-14T13:16:59.279Z,56.77
2023-09-14T13:18:09.422Z,56.58
2023-09-14T13:19:11.672Z,57.11
2023-09-14T13:20:13.920Z,56.72
2023-09-14T13:21:16.130Z,56.80
2023-09-14T13:22:18.369Z,57.20
2023-09-14T13:23:21.038Z,57.50
2023-09-14T13:24:23.354Z,57.55
2023-09-14T13:25:25.873Z,57.89
2023-09-14T13:26:28.025Z,57.99
2023-09-14T13:27:32.916Z,57.85
2023-09-14T13:28:35.081Z,57.81
2023-09-14T13:29:37.225Z,57.21
2023-09-14T13:30:40.248Z,57.36
2023-09-14T13:31:42.683Z,57.50
2023-09-14T13:32:47.944Z,57.85
2023-09-14T13:33:50.217Z,57.81
2023-09-14T13:34:52.361Z,58.09
2023-09-14T13:35:56.143Z,58.17
2023-09-14T13:36:58.376Z,57.64
2023-09-14T13:38:00.812Z,57.90
2023-09-14T13:39:02.972Z,58.43
2023-09-14T13:40:15.770Z,58.04
2023-09-14T13:41:17.959Z,57.50
2023-09-14T13:42:20.105Z,57.56
2023-09-14T13:43:22.404Z,57.80